sensor_id;sensor_type;location;lat;lon;timestamp;temperature;humidity
71672;DHT22;67659;45.554;11.812;2023-03-01T00:02:01;6.30;58.10
71672;DHT22;67659;45.554;11.812;2023-03-01T00:04:27;6.30;58.90
71672;DHT22;67659;45.554;11.812;2023-03-01T00:06:53;6.10;58.50
71672;DHT22;67659;45.554;11.812;2023-03-01T00:09:19;6.10;58.60
71672;DHT22;67659;45.554;11.812;2023-03-01T00:11:45;6.20;58.60
71672;DHT22;67659;45.554;11.812;2023-03-01T00:14:11;6.10;58.90
71672;DHT22;67659;45.554;11.812;2023-03-01T00:16:39;6.10;58.90
71672;DHT22;67659;45.554;11.812;2023-03-01T00:19:07;6.10;58.90
71672;DHT22;67659;45.554;11.812;2023-03-01T00:21:35;6.00;59.70
71672;DHT22;67659;45.554;11.812;2023-03-01T00:24:01;5.90;59.20
71672;DHT22;67659;45.554;11.812;2023-03-01T00:26:28;6.10;59.80
71672;DHT22;67659;45.554;11.812;2023-03-01T00:28:54;5.90;58.90
71672;DHT22;67659;45.554;11.812;2023-03-01T00:31:23;5.90;59.60
71672;DHT22;67659;45.554;11.812;2023-03-01T00:33:56;6.10;59.20
71672;DHT22;67659;45.554;11.812;2023-03-01T00:36:26;6.10;59.30
71672;DHT22;67659;45.554;11.812;2023-03-01T00:38:53;6.10;59.30
71672;DHT22;67659;45.554;11.812;2023-03-01T00:41:20;6.10;59.50
71672;DHT22;67659;45.554;11.812;2023-03-01T00:43:49;6.00;59.30
71672;DHT22;67659;45.554;11.812;2023-03-01T00:46:17;6.10;59.00
71672;DHT22;67659;45.554;11.812;2023-03-01T00:48:43;6.10;59.40
71672;DHT22;67659;45.554;11.812;2023-03-01T00:51:10;6.00;58.90
71672;DHT22;67659;45.554;11.812;2023-03-01T00:53:37;6.10;58.70
71672;DHT22;67659;45.554;11.812;2023-03-01T00:56:05;5.90;58.50
71672;DHT22;67659;45.554;11.812;2023-03-01T00:58:31;6.10;58.30
71672;DHT22;67659;45.554;11.812;2023-03-01T01:01:14;6.10;58.20
71672;DHT22;67659;45.554;11.812;2023-03-01T01:03:48;6.20;58.70
71672;DHT22;67659;45.554;11.812;2023-03-01T01:06:17;6.10;58.50
71672;DHT22;67659;45.554;11.812;2023-03-01T01:08:43;6.10;58.90
71672;DHT22;67659;45.554;11.812;2023-03-01T01:11:10;6.00;58.40
71672;DHT22;67659;45.554;11.812;2023-03-01T01:13:37;6.10;58.90
71672;DHT22;67659;45.554;11.812;2023-03-01T01:16:04;6.00;59.00
71672;DHT22;67659;45.554;11.812;2023-03-01T01:18:29;6.00;58.60
71672;DHT22;67659;45.554;11.812;2023-03-01T01:20:55;5.80;58.60
71672;DHT22;67659;45.554;11.812;2023-03-01T01:23:21;6.00;59.80
71672;DHT22;67659;45.554;11.812;2023-03-01T01:25:50;6.00;59.30
71672;DHT22;67659;45.554;11.812;2023-03-01T01:28:25;6.10;59.30
71672;DHT22;67659;45.554;11.812;2023-03-01T01:30:51;6.00;58.90
71672;DHT22;67659;45.554;11.812;2023-03-01T01:33:17;6.20;58.80
71672;DHT22;67659;45.554;11.812;2023-03-01T01:35:45;6.00;58.70
71672;DHT22;67659;45.554;11.812;2023-03-01T01:38:14;6.30;58.70
71672;DHT22;67659;45.554;11.812;2023-03-01T01:40:44;6.30;58.40
71672;DHT22;67659;45.554;11.812;2023-03-01T01:43:22;6.30;58.50
71672;DHT22;67659;45.554;11.812;2023-03-01T01:45:49;6.30;58.40
71672;DHT22;67659;45.554;11.812;2023-03-01T01:48:21;6.40;58.70
71672;DHT22;67659;45.554;11.812;2023-03-01T01:50:56;6.50;58.80
71672;DHT22;67659;45.554;11.812;2023-03-01T01:53:25;6.30;58.90
71672;DHT22;67659;45.554;11.812;2023-03-01T01:55:56;6.50;58.80
71672;DHT22;67659;45.554;11.812;2023-03-01T01:58:25;6.50;59.40
71672;DHT22;67659;45.554;11.812;2023-03-01T02:00:53;6.60;59.00
71672;DHT22;67659;45.554;11.812;2023-03-01T02:03:26;6.50;59.10
71672;DHT22;67659;45.554;11.812;2023-03-01T02:06:03;6.60;59.60
71672;DHT22;67659;45.554;11.812;2023-03-01T02:08:33;6.50;58.90
71672;DHT22;67659;45.554;11.812;2023-03-01T02:11:01;6.60;59.20
71672;DHT22;67659;45.554;11.812;2023-03-01T02:13:31;6.70;59.40
71672;DHT22;67659;45.554;11.812;2023-03-01T02:15:57;6.50;60.00
71672;DHT22;67659;45.554;11.812;2023-03-01T02:18:23;6.40;59.60
71672;DHT22;67659;45.554;11.812;2023-03-01T02:21:14;6.50;58.90
71672;DHT22;67659;45.554;11.812;2023-03-01T02:23:42;6.70;58.90
71672;DHT22;67659;45.554;11.812;2023-03-01T02:28:43;6.80;58.20
71672;DHT22;67659;45.554;11.812;2023-03-01T02:31:10;6.80;58.80
71672;DHT22;67659;45.554;11.812;2023-03-01T02:33:58;6.70;58.20
71672;DHT22;67659;45.554;11.812;2023-03-01T02:36:28;6.70;58.00
71672;DHT22;67659;45.554;11.812;2023-03-01T02:39:02;6.80;58.00
71672;DHT22;67659;45.554;11.812;2023-03-01T02:41:32;6.80;58.30
71672;DHT22;67659;45.554;11.812;2023-03-01T02:44:00;6.80;57.80
71672;DHT22;67659;45.554;11.812;2023-03-01T02:46:26;6.90;57.70
71672;DHT22;67659;45.554;11.812;2023-03-01T02:48:54;6.90;57.70
71672;DHT22;67659;45.554;11.812;2023-03-01T02:54:10;6.90;57.40
71672;DHT22;67659;45.554;11.812;2023-03-01T02:56:37;6.90;58.00
71672;DHT22;67659;45.554;11.812;2023-03-01T02:59:03;6.80;57.70
71672;DHT22;67659;45.554;11.812;2023-03-01T03:01:30;6.90;57.50
71672;DHT22;67659;45.554;11.812;2023-03-01T03:04:07;7.00;57.50
71672;DHT22;67659;45.554;11.812;2023-03-01T03:06:32;6.90;57.70
71672;DHT22;67659;45.554;11.812;2023-03-01T03:08:59;7.00;57.10
71672;DHT22;67659;45.554;11.812;2023-03-01T03:11:25;7.00;57.00
71672;DHT22;67659;45.554;11.812;2023-03-01T03:13:51;7.00;57.10
71672;DHT22;67659;45.554;11.812;2023-03-01T03:16:18;7.00;56.90
71672;DHT22;67659;45.554;11.812;2023-03-01T03:18:44;7.10;56.90
71672;DHT22;67659;45.554;11.812;2023-03-01T03:21:12;7.00;56.70
71672;DHT22;67659;45.554;11.812;2023-03-01T03:23:38;7.10;57.10
71672;DHT22;67659;45.554;11.812;2023-03-01T03:26:05;7.00;56.90
71672;DHT22;67659;45.554;11.812;2023-03-01T03:28:32;6.90;56.80
71672;DHT22;67659;45.554;11.812;2023-03-01T03:30:58;6.80;56.90
71672;DHT22;67659;45.554;11.812;2023-03-01T03:33:24;6.70;58.40
71672;DHT22;67659;45.554;11.812;2023-03-01T03:35:50;6.80;57.40
71672;DHT22;67659;45.554;11.812;2023-03-01T03:38:18;6.70;57.70
71672;DHT22;67659;45.554;11.812;2023-03-01T03:41:01;6.70;58.10
71672;DHT22;67659;45.554;11.812;2023-03-01T03:43:28;6.60;58.10
71672;DHT22;67659;45.554;11.812;2023-03-01T03:45:55;6.40;58.90
71672;DHT22;67659;45.554;11.812;2023-03-01T03:48:23;6.20;59.80
71672;DHT22;67659;45.554;11.812;2023-03-01T03:50:54;6.30;59.30
71672;DHT22;67659;45.554;11.812;2023-03-01T03:53:22;6.40;60.00
71672;DHT22;67659;45.554;11.812;2023-03-01T03:55:48;6.30;59.50
71672;DHT22;67659;45.554;11.812;2023-03-01T03:58:18;6.30;59.80
71672;DHT22;67659;45.554;11.812;2023-03-01T04:00:46;6.10;60.20
71672;DHT22;67659;45.554;11.812;2023-03-01T04:03:14;6.10;60.10
71672;DHT22;67659;45.554;11.812;2023-03-01T04:05:40;6.20;60.40
71672;DHT22;67659;45.554;11.812;2023-03-01T04:08:07;6.20;60.00
71672;DHT22;67659;45.554;11.812;2023-03-01T04:10:43;6.20;60.60
71672;DHT22;67659;45.554;11.812;2023-03-01T04:13:12;6.30;60.60
71672;DHT22;67659;45.554;11.812;2023-03-01T04:15:38;6.20;60.80
71672;DHT22;67659;45.554;11.812;2023-03-01T04:18:05;6.20;61.50
71672;DHT22;67659;45.554;11.812;2023-03-01T04:20:33;6.30;61.10
71672;DHT22;67659;45.554;11.812;2023-03-01T04:25:40;6.30;61.00
71672;DHT22;67659;45.554;11.812;2023-03-01T04:28:08;6.30;60.90
71672;DHT22;67659;45.554;11.812;2023-03-01T04:30:35;6.30;60.80
71672;DHT22;67659;45.554;11.812;2023-03-01T04:33:06;6.40;60.50
71672;DHT22;67659;45.554;11.812;2023-03-01T04:35:32;6.50;70.80
71672;DHT22;67659;45.554;11.812;2023-03-01T04:37:58;6.50;71.00
71672;DHT22;67659;45.554;11.812;2023-03-01T04:40:24;6.60;70.50
71672;DHT22;67659;45.554;11.812;2023-03-01T04:42:50;6.50;62.60
71672;DHT22;67659;45.554;11.812;2023-03-01T04:45:16;6.60;62.60
71672;DHT22;67659;45.554;11.812;2023-03-01T04:47:43;6.50;63.30
71672;DHT22;67659;45.554;11.812;2023-03-01T04:50:12;6.50;61.90
71672;DHT22;67659;45.554;11.812;2023-03-01T04:52:38;6.60;62.00
71672;DHT22;67659;45.554;11.812;2023-03-01T04:55:05;6.70;60.90
71672;DHT22;67659;45.554;11.812;2023-03-01T04:57:31;6.90;61.00
71672;DHT22;67659;45.554;11.812;2023-03-01T04:59:57;6.70;59.80
71672;DHT22;67659;45.554;11.812;2023-03-01T05:02:23;6.90;59.60
71672;DHT22;67659;45.554;11.812;2023-03-01T05:04:49;6.70;59.20
71672;DHT22;67659;45.554;11.812;2023-03-01T05:07:15;6.90;58.90
71672;DHT22;67659;45.554;11.812;2023-03-01T05:09:45;7.00;58.70
71672;DHT22;67659;45.554;11.812;2023-03-01T05:12:12;7.00;58.60
71672;DHT22;67659;45.554;11.812;2023-03-01T05:14:38;7.00;57.80
71672;DHT22;67659;45.554;11.812;2023-03-01T05:17:04;7.10;57.60
71672;DHT22;67659;45.554;11.812;2023-03-01T05:19:31;7.00;57.50
71672;DHT22;67659;45.554;11.812;2023-03-01T05:21:58;7.20;57.70
71672;DHT22;67659;45.554;11.812;2023-03-01T05:24:28;7.20;57.20
71672;DHT22;67659;45.554;11.812;2023-03-01T05:26:54;7.20;57.00
71672;DHT22;67659;45.554;11.812;2023-03-01T05:29:21;7.20;57.30
71672;DHT22;67659;45.554;11.812;2023-03-01T05:31:55;7.30;57.00
71672;DHT22;67659;45.554;11.812;2023-03-01T05:34:33;7.40;57.20
71672;DHT22;67659;45.554;11.812;2023-03-01T05:36:59;7.30;58.70
71672;DHT22;67659;45.554;11.812;2023-03-01T05:39:27;7.60;56.80
71672;DHT22;67659;45.554;11.812;2023-03-01T05:41:58;7.50;56.60
71672;DHT22;67659;45.554;11.812;2023-03-01T05:44:25;7.40;56.80
71672;DHT22;67659;45.554;11.812;2023-03-01T05:46:51;7.50;57.20
71672;DHT22;67659;45.554;11.812;2023-03-01T05:49:17;7.60;56.80
71672;DHT22;67659;45.554;11.812;2023-03-01T05:51:48;7.60;56.40
71672;DHT22;67659;45.554;11.812;2023-03-01T05:54:14;7.60;56.50
71672;DHT22;67659;45.554;11.812;2023-03-01T05:56:40;7.50;56.60
71672;DHT22;67659;45.554;11.812;2023-03-01T05:59:06;7.60;56.50
71672;DHT22;67659;45.554;11.812;2023-03-01T06:01:33;7.80;56.90
71672;DHT22;67659;45.554;11.812;2023-03-01T06:04:00;7.70;57.10
71672;DHT22;67659;45.554;11.812;2023-03-01T06:06:26;7.70;57.00
71672;DHT22;67659;45.554;11.812;2023-03-01T06:08:52;7.80;57.50
71672;DHT22;67659;45.554;11.812;2023-03-01T06:11:19;7.80;57.50
71672;DHT22;67659;45.554;11.812;2023-03-01T06:13:45;7.80;57.70
71672;DHT22;67659;45.554;11.812;2023-03-01T06:16:13;7.90;57.80
71672;DHT22;67659;45.554;11.812;2023-03-01T06:18:39;7.90;58.30
71672;DHT22;67659;45.554;11.812;2023-03-01T06:21:06;7.90;57.60
71672;DHT22;67659;45.554;11.812;2023-03-01T06:23:32;8.00;58.00
71672;DHT22;67659;45.554;11.812;2023-03-01T06:25:58;8.00;57.40
71672;DHT22;67659;45.554;11.812;2023-03-01T06:28:24;7.90;56.90
71672;DHT22;67659;45.554;11.812;2023-03-01T06:30:50;8.10;56.90
71672;DHT22;67659;45.554;11.812;2023-03-01T06:33:17;8.10;56.40
71672;DHT22;67659;45.554;11.812;2023-03-01T06:35:46;8.10;56.00
71672;DHT22;67659;45.554;11.812;2023-03-01T06:38:12;8.30;55.80
71672;DHT22;67659;45.554;11.812;2023-03-01T06:40:40;8.30;55.70
71672;DHT22;67659;45.554;11.812;2023-03-01T06:43:06;8.40;55.50
71672;DHT22;67659;45.554;11.812;2023-03-01T06:45:33;8.50;55.40
71672;DHT22;67659;45.554;11.812;2023-03-01T06:48:06;8.60;55.80
71672;DHT22;67659;45.554;11.812;2023-03-01T06:50:33;8.60;55.10
71672;DHT22;67659;45.554;11.812;2023-03-01T06:52:59;8.60;54.70
71672;DHT22;67659;45.554;11.812;2023-03-01T06:55:25;8.70;54.80
71672;DHT22;67659;45.554;11.812;2023-03-01T06:57:55;8.70;54.30
71672;DHT22;67659;45.554;11.812;2023-03-01T07:00:22;8.70;54.80
71672;DHT22;67659;45.554;11.812;2023-03-01T07:02:48;8.70;54.50
71672;DHT22;67659;45.554;11.812;2023-03-01T07:05:14;8.90;54.60
71672;DHT22;67659;45.554;11.812;2023-03-01T07:07:40;8.70;54.20
71672;DHT22;67659;45.554;11.812;2023-03-01T07:10:06;8.90;53.80
71672;DHT22;67659;45.554;11.812;2023-03-01T07:12:32;9.00;54.20
71672;DHT22;67659;45.554;11.812;2023-03-01T07:14:58;9.00;54.10
71672;DHT22;67659;45.554;11.812;2023-03-01T07:17:24;9.20;53.90
71672;DHT22;67659;45.554;11.812;2023-03-01T07:19:50;9.30;53.90
71672;DHT22;67659;45.554;11.812;2023-03-01T07:22:15;9.50;53.30
71672;DHT22;67659;45.554;11.812;2023-03-01T07:24:42;9.60;53.50
71672;DHT22;67659;45.554;11.812;2023-03-01T07:27:08;9.70;53.30
71672;DHT22;67659;45.554;11.812;2023-03-01T07:29:34;9.80;53.10
71672;DHT22;67659;45.554;11.812;2023-03-01T07:32:03;9.90;52.70
71672;DHT22;67659;45.554;11.812;2023-03-01T07:34:29;10.00;52.90
71672;DHT22;67659;45.554;11.812;2023-03-01T07:36:54;10.10;52.10
71672;DHT22;67659;45.554;11.812;2023-03-01T07:39:21;10.40;52.00
71672;DHT22;67659;45.554;11.812;2023-03-01T07:41:49;10.80;51.40
71672;DHT22;67659;45.554;11.812;2023-03-01T07:44:14;11.50;50.40
71672;DHT22;67659;45.554;11.812;2023-03-01T07:46:41;12.20;48.80
71672;DHT22;67659;45.554;11.812;2023-03-01T07:49:08;12.40;48.00
71672;DHT22;67659;45.554;11.812;2023-03-01T07:51:34;12.40;47.30
71672;DHT22;67659;45.554;11.812;2023-03-01T07:54:00;12.50;47.20
71672;DHT22;67659;45.554;11.812;2023-03-01T07:56:26;12.30;47.30
71672;DHT22;67659;45.554;11.812;2023-03-01T07:58:51;12.20;47.00
71672;DHT22;67659;45.554;11.812;2023-03-01T08:01:19;12.20;47.00
71672;DHT22;67659;45.554;11.812;2023-03-01T08:03:45;12.20;47.00
71672;DHT22;67659;45.554;11.812;2023-03-01T08:06:13;12.30;47.00
71672;DHT22;67659;45.554;11.812;2023-03-01T08:08:39;12.20;47.30
71672;DHT22;67659;45.554;11.812;2023-03-01T08:11:07;12.00;47.70
71672;DHT22;67659;45.554;11.812;2023-03-01T08:13:33;11.80;47.70
71672;DHT22;67659;45.554;11.812;2023-03-01T08:16:10;11.90;47.10
71672;DHT22;67659;45.554;11.812;2023-03-01T08:18:37;11.60;47.90
71672;DHT22;67659;45.554;11.812;2023-03-01T08:21:04;11.50;48.20
71672;DHT22;67659;45.554;11.812;2023-03-01T08:23:30;11.50;48.30
71672;DHT22;67659;45.554;11.812;2023-03-01T08:26:13;11.20;48.30
71672;DHT22;67659;45.554;11.812;2023-03-01T08:28:40;11.40;48.40
71672;DHT22;67659;45.554;11.812;2023-03-01T08:31:27;11.50;48.90
71672;DHT22;67659;45.554;11.812;2023-03-01T08:33:56;11.40;48.70
71672;DHT22;67659;45.554;11.812;2023-03-01T08:36:23;11.30;49.40
71672;DHT22;67659;45.554;11.812;2023-03-01T08:38:50;11.50;48.90
71672;DHT22;67659;45.554;11.812;2023-03-01T08:41:16;11.60;48.40
71672;DHT22;67659;45.554;11.812;2023-03-01T08:43:41;11.80;48.40
71672;DHT22;67659;45.554;11.812;2023-03-01T08:46:07;12.00;48.80
71672;DHT22;67659;45.554;11.812;2023-03-01T08:48:33;12.20;48.40
71672;DHT22;67659;45.554;11.812;2023-03-01T08:51:11;12.30;48.50
71672;DHT22;67659;45.554;11.812;2023-03-01T08:53:37;12.60;48.10
71672;DHT22;67659;45.554;11.812;2023-03-01T08:56:03;12.90;46.30
71672;DHT22;67659;45.554;11.812;2023-03-01T08:58:29;13.30;45.90
71672;DHT22;67659;45.554;11.812;2023-03-01T09:00:55;13.80;45.60
71672;DHT22;67659;45.554;11.812;2023-03-01T09:03:22;14.20;44.40
71672;DHT22;67659;45.554;11.812;2023-03-01T09:05:49;14.50;44.40
71672;DHT22;67659;45.554;11.812;2023-03-01T09:08:16;14.90;43.80
71672;DHT22;67659;45.554;11.812;2023-03-01T09:10:42;15.30;42.90
71672;DHT22;67659;45.554;11.812;2023-03-01T09:13:08;15.60;40.50
71672;DHT22;67659;45.554;11.812;2023-03-01T09:15:36;16.40;40.90
71672;DHT22;67659;45.554;11.812;2023-03-01T09:18:02;17.50;39.80
71672;DHT22;67659;45.554;11.812;2023-03-01T09:20:28;19.00;37.10
71672;DHT22;67659;45.554;11.812;2023-03-01T09:22:53;20.00;34.60
71672;DHT22;67659;45.554;11.812;2023-03-01T09:25:19;20.40;33.70
71672;DHT22;67659;45.554;11.812;2023-03-01T09:27:45;20.80;32.90
71672;DHT22;67659;45.554;11.812;2023-03-01T09:30:11;21.00;30.40
71672;DHT22;67659;45.554;11.812;2023-03-01T09:32:37;21.00;29.40
71672;DHT22;67659;45.554;11.812;2023-03-01T09:35:08;20.30;31.80
71672;DHT22;67659;45.554;11.812;2023-03-01T09:37:36;20.60;31.90
71672;DHT22;67659;45.554;11.812;2023-03-01T09:40:05;20.00;32.60
71672;DHT22;67659;45.554;11.812;2023-03-01T09:42:35;19.70;32.40
71672;DHT22;67659;45.554;11.812;2023-03-01T09:45:10;19.30;32.90
71672;DHT22;67659;45.554;11.812;2023-03-01T09:47:37;19.10;32.30
71672;DHT22;67659;45.554;11.812;2023-03-01T09:50:09;18.90;33.50
71672;DHT22;67659;45.554;11.812;2023-03-01T09:53:02;18.90;33.10
71672;DHT22;67659;45.554;11.812;2023-03-01T09:58:31;19.60;33.30
71672;DHT22;67659;45.554;11.812;2023-03-01T10:01:26;19.60;31.30
71672;DHT22;67659;45.554;11.812;2023-03-01T10:04:36;19.30;32.00
71672;DHT22;67659;45.554;11.812;2023-03-01T10:09:41;18.80;33.00
71672;DHT22;67659;45.554;11.812;2023-03-01T10:12:17;18.30;33.00
71672;DHT22;67659;45.554;11.812;2023-03-01T10:17:43;18.10;36.70
71672;DHT22;67659;45.554;11.812;2023-03-01T10:20:21;18.20;35.50
71672;DHT22;67659;45.554;11.812;2023-03-01T10:22:48;17.90;36.00
71672;DHT22;67659;45.554;11.812;2023-03-01T10:28:24;17.30;37.80
71672;DHT22;67659;45.554;11.812;2023-03-01T10:30:51;17.70;38.10
71672;DHT22;67659;45.554;11.812;2023-03-01T10:33:21;18.40;36.20
71672;DHT22;67659;45.554;11.812;2023-03-01T10:35:47;18.70;34.40
71672;DHT22;67659;45.554;11.812;2023-03-01T10:38:15;19.20;33.80
71672;DHT22;67659;45.554;11.812;2023-03-01T10:41:05;19.30;34.40
71672;DHT22;67659;45.554;11.812;2023-03-01T10:43:47;19.00;34.30
71672;DHT22;67659;45.554;11.812;2023-03-01T10:46:28;18.50;35.40
71672;DHT22;67659;45.554;11.812;2023-03-01T10:51:47;16.50;38.90
71672;DHT22;67659;45.554;11.812;2023-03-01T10:54:25;15.50;38.90
71672;DHT22;67659;45.554;11.812;2023-03-01T10:56:59;15.00;41.40
71672;DHT22;67659;45.554;11.812;2023-03-01T10:59:36;14.80;41.20
71672;DHT22;67659;45.554;11.812;2023-03-01T11:04:35;14.50;42.60
71672;DHT22;67659;45.554;11.812;2023-03-01T11:07:02;14.30;43.60
71672;DHT22;67659;45.554;11.812;2023-03-01T11:09:32;14.00;42.80
71672;DHT22;67659;45.554;11.812;2023-03-01T11:12:11;13.80;43.40
71672;DHT22;67659;45.554;11.812;2023-03-01T11:14:50;13.80;42.40
71672;DHT22;67659;45.554;11.812;2023-03-01T11:17:34;13.40;43.40
71672;DHT22;67659;45.554;11.812;2023-03-01T11:22:45;13.50;43.20
71672;DHT22;67659;45.554;11.812;2023-03-01T11:25:14;13.30;43.90
71672;DHT22;67659;45.554;11.812;2023-03-01T11:27:43;13.30;44.00
71672;DHT22;67659;45.554;11.812;2023-03-01T11:30:36;13.40;44.70
71672;DHT22;67659;45.554;11.812;2023-03-01T11:33:17;13.40;44.60
71672;DHT22;67659;45.554;11.812;2023-03-01T11:36:01;13.30;44.40
71672;DHT22;67659;45.554;11.812;2023-03-01T11:38:29;13.40;43.80
71672;DHT22;67659;45.554;11.812;2023-03-01T11:41:13;13.40;44.80
71672;DHT22;67659;45.554;11.812;2023-03-01T11:43:59;13.40;45.10
71672;DHT22;67659;45.554;11.812;2023-03-01T11:49:25;13.30;46.20
71672;DHT22;67659;45.554;11.812;2023-03-01T11:52:15;13.50;45.90
71672;DHT22;67659;45.554;11.812;2023-03-01T11:54:55;13.40;44.10
71672;DHT22;67659;45.554;11.812;2023-03-01T12:08:56;12.60;45.50
71672;DHT22;67659;45.554;11.812;2023-03-01T12:14:44;12.60;47.40
71672;DHT22;67659;45.554;11.812;2023-03-01T12:35:02;12.00;47.30
71672;DHT22;67659;45.554;11.812;2023-03-01T12:37:25;12.30;47.30
71672;DHT22;67659;45.554;11.812;2023-03-01T12:45:48;12.30;47.30
71672;DHT22;67659;45.554;11.812;2023-03-01T12:51:26;12.40;47.50
71672;DHT22;67659;45.554;11.812;2023-03-01T12:53:54;11.60;48.10
71672;DHT22;67659;45.554;11.812;2023-03-01T12:56:24;11.70;47.70
71672;DHT22;67659;45.554;11.812;2023-03-01T13:04:26;11.80;49.20
71672;DHT22;67659;45.554;11.812;2023-03-01T13:20:52;11.90;52.60
71672;DHT22;67659;45.554;11.812;2023-03-01T13:31:04;11.90;52.30
71672;DHT22;67659;45.554;11.812;2023-03-01T13:35:58;12.20;53.70
71672;DHT22;67659;45.554;11.812;2023-03-01T13:38:48;12.30;55.00
71672;DHT22;67659;45.554;11.812;2023-03-01T13:44:31;12.50;54.90
71672;DHT22;67659;45.554;11.812;2023-03-01T13:49:57;12.60;54.80
71672;DHT22;67659;45.554;11.812;2023-03-01T13:53:04;12.60;54.20
71672;DHT22;67659;45.554;11.812;2023-03-01T13:55:50;12.50;53.60
71672;DHT22;67659;45.554;11.812;2023-03-01T13:58:43;12.60;54.10
71672;DHT22;67659;45.554;11.812;2023-03-01T14:01:38;12.40;53.80
71672;DHT22;67659;45.554;11.812;2023-03-01T14:04:23;12.00;53.20
71672;DHT22;67659;45.554;11.812;2023-03-01T14:06:49;11.60;54.40
71672;DHT22;67659;45.554;11.812;2023-03-01T14:17:33;12.40;53.80
71672;DHT22;67659;45.554;11.812;2023-03-01T14:20:17;12.60;53.30
71672;DHT22;67659;45.554;11.812;2023-03-01T14:22:44;12.70;52.70
71672;DHT22;67659;45.554;11.812;2023-03-01T14:25:38;12.70;51.40
71672;DHT22;67659;45.554;11.812;2023-03-01T14:33:30;12.80;53.60
71672;DHT22;67659;45.554;11.812;2023-03-01T14:38:45;12.80;53.60
71672;DHT22;67659;45.554;11.812;2023-03-01T14:41:23;12.70;54.00
71672;DHT22;67659;45.554;11.812;2023-03-01T14:44:01;12.20;54.20
71672;DHT22;67659;45.554;11.812;2023-03-01T14:46:36;12.20;56.50
71672;DHT22;67659;45.554;11.812;2023-03-01T14:49:19;12.20;56.10
71672;DHT22;67659;45.554;11.812;2023-03-01T14:51:59;12.30;54.90
71672;DHT22;67659;45.554;11.812;2023-03-01T14:54:40;12.60;53.30
71672;DHT22;67659;45.554;11.812;2023-03-01T14:59:43;12.50;53.90
71672;DHT22;67659;45.554;11.812;2023-03-01T15:02:21;12.50;54.80
71672;DHT22;67659;45.554;11.812;2023-03-01T15:04:51;12.30;54.20
71672;DHT22;67659;45.554;11.812;2023-03-01T15:07:17;12.40;55.40
71672;DHT22;67659;45.554;11.812;2023-03-01T15:09:43;12.30;55.30
71672;DHT22;67659;45.554;11.812;2023-03-01T15:14:57;12.40;55.60
71672;DHT22;67659;45.554;11.812;2023-03-01T15:17:27;12.50;54.60
71672;DHT22;67659;45.554;11.812;2023-03-01T15:19:54;12.60;52.90
71672;DHT22;67659;45.554;11.812;2023-03-01T15:22:21;12.60;52.70
71672;DHT22;67659;45.554;11.812;2023-03-01T15:24:50;12.60;52.70
71672;DHT22;67659;45.554;11.812;2023-03-01T15:27:19;12.40;53.10
71672;DHT22;67659;45.554;11.812;2023-03-01T15:30:13;12.40;52.90
71672;DHT22;67659;45.554;11.812;2023-03-01T15:32:38;12.60;52.60
71672;DHT22;67659;45.554;11.812;2023-03-01T15:35:40;12.40;52.40
71672;DHT22;67659;45.554;11.812;2023-03-01T15:38:26;12.40;52.80
71672;DHT22;67659;45.554;11.812;2023-03-01T15:40:53;12.50;52.30
71672;DHT22;67659;45.554;11.812;2023-03-01T15:46:03;12.60;51.50
71672;DHT22;67659;45.554;11.812;2023-03-01T15:48:29;12.60;52.40
71672;DHT22;67659;45.554;11.812;2023-03-01T15:50:59;12.50;52.60
71672;DHT22;67659;45.554;11.812;2023-03-01T15:53:27;12.50;53.50
71672;DHT22;67659;45.554;11.812;2023-03-01T15:55:53;12.50;54.10
71672;DHT22;67659;45.554;11.812;2023-03-01T15:58:23;12.40;55.40
71672;DHT22;67659;45.554;11.812;2023-03-01T16:00:50;12.30;56.30
71672;DHT22;67659;45.554;11.812;2023-03-01T16:03:22;12.00;57.70
71672;DHT22;67659;45.554;11.812;2023-03-01T16:05:49;12.10;56.80
71672;DHT22;67659;45.554;11.812;2023-03-01T16:08:16;11.90;58.10
71672;DHT22;67659;45.554;11.812;2023-03-01T16:10:42;11.80;59.50
71672;DHT22;67659;45.554;11.812;2023-03-01T16:13:12;11.60;61.30
71672;DHT22;67659;45.554;11.812;2023-03-01T16:15:39;11.20;72.30
71672;DHT22;67659;45.554;11.812;2023-03-01T16:18:05;10.90;76.00
71672;DHT22;67659;45.554;11.812;2023-03-01T16:20:34;10.50;79.20
71672;DHT22;67659;45.554;11.812;2023-03-01T16:23:06;10.60;77.20
71672;DHT22;67659;45.554;11.812;2023-03-01T16:25:32;10.40;87.10
71672;DHT22;67659;45.554;11.812;2023-03-01T16:27:59;10.50;83.00
71672;DHT22;67659;45.554;11.812;2023-03-01T16:30:29;10.30;94.60
71672;DHT22;67659;45.554;11.812;2023-03-01T16:32:55;10.40;93.90
71672;DHT22;67659;45.554;11.812;2023-03-01T16:35:22;10.20;95.30
71672;DHT22;67659;45.554;11.812;2023-03-01T16:37:49;10.10;94.80
71672;DHT22;67659;45.554;11.812;2023-03-01T16:40:26;10.10;95.20
71672;DHT22;67659;45.554;11.812;2023-03-01T16:42:53;10.00;95.10
71672;DHT22;67659;45.554;11.812;2023-03-01T16:45:21;9.90;95.50
71672;DHT22;67659;45.554;11.812;2023-03-01T16:47:47;9.90;96.00
71672;DHT22;67659;45.554;11.812;2023-03-01T16:50:13;9.90;95.20
71672;DHT22;67659;45.554;11.812;2023-03-01T16:52:38;9.90;95.70
71672;DHT22;67659;45.554;11.812;2023-03-01T16:55:06;9.90;95.70
71672;DHT22;67659;45.554;11.812;2023-03-01T16:57:37;9.90;96.00
71672;DHT22;67659;45.554;11.812;2023-03-01T17:00:05;9.80;96.10
71672;DHT22;67659;45.554;11.812;2023-03-01T17:02:36;9.80;96.80
71672;DHT22;67659;45.554;11.812;2023-03-01T17:05:02;9.70;97.30
71672;DHT22;67659;45.554;11.812;2023-03-01T17:07:29;9.70;96.90
71672;DHT22;67659;45.554;11.812;2023-03-01T17:09:59;9.50;97.80
71672;DHT22;67659;45.554;11.812;2023-03-01T17:12:25;9.50;99.90
71672;DHT22;67659;45.554;11.812;2023-03-01T17:14:51;9.50;98.70
71672;DHT22;67659;45.554;11.812;2023-03-01T17:17:17;9.50;99.20
71672;DHT22;67659;45.554;11.812;2023-03-01T17:19:42;9.60;97.00
71672;DHT22;67659;45.554;11.812;2023-03-01T17:22:10;9.60;97.40
71672;DHT22;67659;45.554;11.812;2023-03-01T17:24:38;9.50;98.10
71672;DHT22;67659;45.554;11.812;2023-03-01T17:27:06;9.50;99.60
71672;DHT22;67659;45.554;11.812;2023-03-01T17:29:33;9.40;97.60
71672;DHT22;67659;45.554;11.812;2023-03-01T17:31:59;9.30;98.50
71672;DHT22;67659;45.554;11.812;2023-03-01T17:34:25;9.30;98.20
71672;DHT22;67659;45.554;11.812;2023-03-01T17:36:51;9.10;98.50
71672;DHT22;67659;45.554;11.812;2023-03-01T17:39:18;9.10;98.80
71672;DHT22;67659;45.554;11.812;2023-03-01T17:41:51;9.10;97.80
71672;DHT22;67659;45.554;11.812;2023-03-01T17:44:17;9.20;97.90
71672;DHT22;67659;45.554;11.812;2023-03-01T17:46:43;9.10;98.40
71672;DHT22;67659;45.554;11.812;2023-03-01T17:49:09;9.10;98.10
71672;DHT22;67659;45.554;11.812;2023-03-01T17:51:36;9.20;98.00
71672;DHT22;67659;45.554;11.812;2023-03-01T17:54:02;9.00;98.10